Record high temperature 39.4°C Record low temperature -14.6°C Record high gust 68.5 km/h Record high average 47.2 km/h Record daily rain 55.3 mm Record low windchill -17.5°C Record high barometer 1045.0 hPa Record low barometer 970.0 hPa
Daily high pressure 1021.0 hPa Daily low pressure 1018.0 hPa Daily low windchill 7.1°C Daily high heat index 18.6°C Daily high gust speed 15.7 kmh SSW Daily high average speed 10.4 kmh SSW

This page is updated from recent data collected by a WMR200 weather station Use the Reload or Refresh facility on your browser to retrieve the latest data.

Status report of weather station: Bienvenue sur la Station Météo de Godarville



Weather report/warning/Metars

Alexandroupoli Airport , Greece (LGAL) 40-51N 025-55E 3M
May 23, 2019 - 04:20 AM EDT / 2019.05.23 0820 UTC
Wind: from the S (180 degrees) at 5 MPH (4 KT):0
Visibility: greater than 7 mile(s):0
Sky conditions: mostly clear
Temperature: 71 F (22 C)
Dew Point: 55 F (13 C)
Relative Humidity: 56%
Pressure (altimeter): 29.88 in. Hg (1012 hPa)
ob: LGAL 230820Z 18004KT 9999 FEW035 22/13 Q1012
cycle: 8

Charleroi / Gosselies, Belgium (EBCI) 50-28N 004-27E 192M
May 23, 2019 - 04:20 AM EDT / 2019.05.23 0820 UTC
Wind: from the WSW (240 degrees) at 10 MPH (9 KT):0
Visibility: greater than 7 mile(s):0
Sky conditions: mostly clear
Temperature: 62 F (17 C)
Dew Point: 48 F (9 C)
Relative Humidity: 59%
Pressure (altimeter): 30.09 in. Hg (1019 hPa)
ob: EBCI 230820Z 24009KT 9999 FEW032 17/09 Q1019 NOSIG
cycle: 8

Bruxelles National, Belgium (EBBR) 50-54N 004-32E 58M
May 23, 2019 - 04:20 AM EDT / 2019.05.23 0820 UTC
Wind: from the WSW (250 degrees) at 8 MPH (7 KT) (direction variable):0
Visibility: greater than 7 mile(s):0
Temperature: 64 F (18 C)
Dew Point: 48 F (9 C)
Relative Humidity: 55%
Pressure (altimeter): 30.09 in. Hg (1019 hPa)
ob: EBBR 230820Z 25007KT 220V280 CAVOK 18/09 Q1019 NOSIG
cycle: 8

Koksijde, Belgium (EBFN) 51-05N 002-39E 9M
May 23, 2019 - 04:25 AM EDT / 2019.05.23 0825 UTC
Wind: from the SW (230 degrees) at 6 MPH (5 KT):0
Visibility: greater than 7 mile(s):0
Sky conditions: mostly cloudy
Temperature: 62 F (17 C)
Dew Point: 42 F (6 C)
Relative Humidity: 48%
Pressure (altimeter): 30.06 in. Hg (1018 hPa)
ob: EBFN 230825Z 23005KT 9999 FEW050 BKN220 17/06 Q1018 BLU BLU
cycle: 8

Poznan, Poland (EPPO) 52-25N 016-50E 92M
May 23, 2019 - 04:30 AM EDT / 2019.05.23 0830 UTC
Wind: from the NW (310 degrees) at 10 MPH (9 KT):0
Visibility: greater than 7 mile(s):0
Sky conditions: overcast
Temperature: 55 F (13 C)
Dew Point: 48 F (9 C)
Relative Humidity: 76%
Pressure (altimeter): 29.97 in. Hg (1015 hPa)
ob: EPPO 230830Z 31009KT 9999 OVC016 13/09 Q1015 R10/19//95 
cycle: 8



Coucher du Soleil:
21:33:22

Lever de Lune:
01:13:12 23/05/19

Coucher de Lune:
08:31:30 22/05/19

Premier Quartier 12 mai 2019
Pleine Lune 18 mai 2019
Dernier Quartier 26 mai 2019
Nouvelle Lune 3 juin 2019
Âge de lune : 18 jours,17 heures,44 minutes,83%
Les heures du jour possible étaient aujourd’hui 15:47



Use the RELOAD facility on your browser to retrieve the latest data.

Click here for a daily update of the averages/extremes to date for the month
Created by "Weather Display" software version 10.37P at this start time/date 23:05:05 22/05/2019